YCBG weather

Hobart Cambridge Airport
Tasmania, Australia

Public forecast

Using degrees Celsius for public forecast. Weather courtesy of forecast.io.

METAR (pilot weather report)

Closest report is Hobart International Airport, 1.6 nm (3.0 km) ESE. Retrieved 2019/03/21 22:00 UTC (2 hours ago):

YMHB 212200Z 00000KT 9999 FEW005 BKN022 15/14 Q1022

TAF (pilot weather forecast)

Forecast is more than 6 hours old.

Closest forecast is Hobart International Airport, 1.6 nm (3.0 km) ESE. Retrieved 2019/03/21 12:36 UTC (11 hours ago):

TAF YMHB 211115Z 2112/2212 18008KT 7000 -DZ SCT005 BKN010 FM211500 VRB03KT 7000 -DZ BKN010 FM220000 09008KT 9999 -DZ BKN015 FM220200 09008KT 9999 -DZ BKN020 FM220600 09008KT 9999 BKN020 TEMPO 2112/2124 2000 DZ BKN005